Albertson, North Carolina
Current Conditions -  °F | °C
As of 1:35 AM on Tuesday 21 Oct 2014 (Local Time) from KDPL Reporting Station
Clear Clear  
Wind Chill: 11°   Ceiling: Unl
Heat Index: 11°   Visibility: 10mi
Dew Point: 11°   Wind: 0mph
Humidity: 95%   Direction: NA
Pressure: 29.98"   Gusts: NA
Location:  35.11°N, 77.82°W
Report Text: KDPL 210535Z AUTO 00000KT 10SM CLR 12/11 A2998 RMK AO2 T01150108
Loading
Personal Weather Stations






























Interactive Weather Map
Tropical Storm Tracking
New forecast layout! Learn more

10-Day Weather Forecast

Advertisements
Track Severe Weather on mobile